Grande Prairie Airport
CYQU : now visible

Airfield :











YOU CAN JOIN US ON...

 
LOGIN :

Register | Disclaimer

   EN    FR    IT 

 









Legend :    VFR   Marginal VFR   IFR   Intensive IFR   Very Intensive IFR
Visi :
Ceiling :
>= 8 km
>= 3000ft
5 to 8 km
1000 to 3000 ft
1500m to 5 km
500 to 1000 ft
800 to 1500m
200 to 500 ft
< 800m
< 200 ft
Symbols :   Thunderstorms  Fog  Heavy snow  Heavy precipitations  Wind > 20 kt






- Airport Elevation : 2195 ft
- IATA code : YQU


CYQU - Grande Prairie

CURRENT METAR :
  • 241800Z 31013KT 240V320 25SM BKN085 16/M00 A2988 RMK CU6 SLP132 DENSITY ALT 2900FT

EXPIRED METARs :
  • 241700Z 24014KT 25SM BKN059 15/02 A2989 RMK SC6 SLP138 DENSITY ALT 2800FT
  • 241600Z 26010G17KT 25SM FEW040 FEW220 13/03 A2991 RMK CU1CI1 SLP141 DENSITY ALT 2600FT

TAF TAF CYQU
Valid from the 24 at 13:00 until the 25 at 01:00 UTC


241240Z 2413/2501 24010KT P6SM FEW070 SCT250
TEMPO 2413/2422 BKN070
BECMG 2415/2417 26015G25KT
FM242200 26012KT P6SM SCT100 RMK NXT FCST BY 241900Z
CZEG FIR / North America



MET'MAP, your aeronautical weather chart ! - Copyright ORBIFLY December 2007 - Disclaimer

ORBIFLY MET'MAP TEAM :

Programming & Development : Alexandra Zaïnal
Original concept : Baudouin d'Aumeries
Technical & hardware support : Manuel Goepfert
Assistance : Marc-Olivier Méhu

Contact : metmap@orbifly.com




SOURCES & CREDITS :

   NOAA       Earth
Advisory